Main page
METAR-TAF:

METAR-TAF

Airports :

Esenboğa International Airport

Ankara Esenboğa, Turkey

latitude: 40-07N, longitude: 032-59E, elevation: 953 m

Current weather observation

The report was made 35 minutes ago, at 18:50 UTC
Wind 1 kt from variable directions
Temperature 16°C
Humidity 55%
Pressure 1019 hPa
Visibility 10 km or more
Scattered clouds at a height of 4000 ft

METAR: LTAC 171850Z VRB01KT 9999 SCT040 16/07 Q1019 NOSIG RMK RWY21L VRB01KT RWY03L 03001KT RWY21R VRB02KT

Time: 22:25 (19:25 UTC)

Forecast

The report was made 2 hours and 45 minutes ago, at 16:40 UTC
Forecast valid from 17 at 18 UTC to 18 at 18 UTC
Wind 2 kt from variable directions
Visibility: 8000 m
Scattered clouds at a height of 3500 ft

TAF: LTAC 171640Z 1718/1818 VRB02KT 8000 SCT035

Weather observations and forecasts of more than 4000 airports (METAR and TAF reports).

The available stations are represented by yellow and red dots on the map.

Hover mouse over dot to see the name of the station.

Then click to see weather observations and forecasts.

To change the map : click on the green buttons with a black cross to zoom in, on the green button with a dash to zoom out, or on the green arrows for adjacent maps.


METAR-TAF: